createdAt,value
2022-08-09T00:01:54.663Z,97.35
2022-08-09T00:04:34.969Z,96.83
2022-08-09T00:07:10.356Z,96.66
2022-08-09T00:09:40.578Z,96.50
2022-08-09T00:12:15.573Z,96.91
2022-08-09T00:14:56.706Z,96.41
2022-08-09T00:18:05.512Z,97.48
2022-08-09T00:20:18.576Z,97.04
2022-08-09T00:22:48.185Z,97.08
2022-08-09T00:25:23.419Z,98.20
2022-08-09T00:28:03.916Z,98.56
2022-08-09T00:30:33.553Z,98.23
2022-08-09T00:33:03.891Z,99.08
2022-08-09T00:35:43.631Z,99.48
2022-08-09T00:38:13.412Z,100.00
2022-08-09T00:40:52.644Z,100.00
2022-08-09T00:44:25.121Z,100.00
2022-08-09T00:46:14.550Z,100.00
2022-08-09T00:49:02.460Z,100.00
2022-08-09T00:51:54.259Z,100.00
2022-08-09T00:54:35.124Z,99.94
2022-08-09T00:57:08.838Z,100.00
2022-08-09T00:59:41.344Z,100.00
2022-08-09T01:02:21.040Z,100.00
2022-08-09T01:04:57.330Z,100.00
2022-08-09T01:08:01.080Z,100.00
2022-08-09T01:10:35.883Z,100.00
2022-08-09T01:13:16.939Z,100.00
2022-08-09T01:15:52.520Z,100.00
2022-08-09T01:18:29.798Z,100.00
2022-08-09T01:21:19.010Z,100.00
2022-08-09T01:24:05.085Z,100.00
2022-08-09T01:26:52.953Z,100.00
2022-08-09T01:29:40.899Z,100.00
2022-08-09T01:32:30.308Z,100.00
2022-08-09T01:35:29.022Z,100.00
2022-08-09T01:38:09.609Z,100.00
2022-08-09T01:40:43.087Z,100.00
2022-08-09T01:43:15.346Z,99.84
2022-08-09T01:45:47.659Z,99.98
2022-08-09T01:48:19.223Z,100.00
2022-08-09T01:50:55.514Z,100.00
2022-08-09T01:53:28.937Z,100.00
2022-08-09T01:56:12.878Z,100.00
2022-08-09T01:58:48.852Z,100.00
2022-08-09T02:01:21.405Z,100.00
2022-08-09T02:04:12.860Z,100.00
2022-08-09T02:06:59.134Z,100.00
2022-08-09T02:09:41.724Z,100.00
2022-08-09T02:12:21.127Z,99.94
2022-08-09T02:14:56.976Z,99.44
2022-08-09T02:18:00.321Z,98.48
2022-08-09T02:20:25.008Z,98.01
2022-08-09T02:23:01.749Z,98.07
2022-08-09T02:25:42.393Z,98.17
2022-08-09T02:28:24.186Z,98.59
2022-08-09T02:31:03.147Z,98.38
2022-08-09T02:33:58.390Z,98.55
2022-08-09T02:36:33.755Z,98.18
2022-08-09T02:39:07.427Z,98.01
2022-08-09T02:41:47.804Z,97.36
2022-08-09T02:44:29.584Z,96.99
2022-08-09T02:47:06.849Z,97.54
2022-08-09T02:49:42.832Z,97.63
2022-08-09T02:52:16.140Z,97.38
2022-08-09T02:54:54.106Z,97.75
2022-08-09T02:57:26.790Z,97.93
2022-08-09T03:00:25.128Z,97.41
2022-08-09T03:02:59.885Z,97.73
2022-08-09T03:05:34.757Z,98.20
2022-08-09T03:08:05.995Z,97.43
2022-08-09T03:10:38.125Z,97.42
2022-08-09T03:13:09.948Z,97.67
2022-08-09T03:16:05.993Z,96.99
2022-08-09T03:18:35.056Z,94.64
2022-08-09T03:21:09.778Z,95.23
2022-08-09T03:24:04.860Z,95.34
2022-08-09T03:26:36.524Z,94.58
2022-08-09T03:29:22.936Z,94.32
2022-08-09T03:32:00.562Z,93.74
2022-08-09T03:34:32.509Z,93.68
2022-08-09T03:37:02.430Z,93.53
2022-08-09T03:39:55.640Z,93.27
2022-08-09T03:42:28.952Z,93.95
2022-08-09T03:45:00.051Z,94.38
2022-08-09T03:47:29.457Z,94.81
2022-08-09T03:50:09.959Z,94.09
2022-08-09T03:52:42.154Z,93.24
2022-08-09T03:55:14.400Z,92.66
2022-08-09T03:57:44.607Z,91.26
2022-08-09T04:00:30.087Z,91.70
2022-08-09T04:03:01.879Z,91.99
2022-08-09T04:05:32.751Z,91.97
2022-08-09T04:08:09.847Z,92.29
2022-08-09T04:10:39.039Z,92.78
2022-08-09T04:13:12.172Z,92.00
2022-08-09T04:16:20.471Z,91.46
2022-08-09T04:18:40.379Z,91.22
2022-08-09T04:21:13.276Z,91.19
2022-08-09T04:23:42.815Z,91.21
2022-08-09T04:26:23.805Z,91.64
2022-08-09T04:28:58.129Z,91.34
2022-08-09T04:31:37.576Z,91.24
2022-08-09T04:34:18.898Z,88.79
2022-08-09T04:37:02.521Z,88.65
2022-08-09T04:39:32.800Z,88.41
2022-08-09T04:42:10.530Z,88.26
2022-08-09T04:44:49.353Z,87.23
2022-08-09T04:47:18.797Z,86.55
2022-08-09T04:49:54.338Z,85.98
2022-08-09T04:52:28.581Z,85.80
2022-08-09T04:54:59.364Z,85.31
2022-08-09T04:57:53.882Z,85.80
2022-08-09T05:00:19.040Z,86.33
2022-08-09T05:02:52.847Z,85.24
2022-08-09T05:05:31.753Z,85.32
2022-08-09T05:08:15.050Z,86.21
2022-08-09T05:10:44.626Z,86.26
2022-08-09T05:13:15.466Z,86.47
2022-08-09T05:15:48.157Z,86.45
2022-08-09T05:18:39.319Z,86.02
2022-08-09T05:21:20.810Z,86.26
2022-08-09T05:24:00.508Z,86.46
2022-08-09T05:26:45.475Z,87.06
2022-08-09T05:29:21.660Z,87.16
2022-08-09T05:31:57.602Z,86.94
2022-08-09T05:34:30.701Z,86.53
2022-08-09T05:37:06.448Z,86.34
2022-08-09T05:39:43.322Z,85.92
2022-08-09T05:42:17.566Z,86.32
2022-08-09T05:44:52.360Z,85.95
2022-08-09T05:47:23.076Z,86.26
2022-08-09T05:50:25.041Z,85.67
2022-08-09T05:52:43.373Z,84.47
2022-08-09T05:55:21.106Z,83.50
2022-08-09T05:57:57.431Z,82.28
2022-08-09T06:00:29.824Z,80.92
2022-08-09T06:03:00.070Z,80.86
2022-08-09T06:05:57.468Z,80.78
2022-08-09T06:08:24.856Z,81.58
2022-08-09T06:10:59.137Z,82.32
2022-08-09T06:13:33.631Z,82.89
2022-08-09T06:16:05.028Z,83.67
2022-08-09T06:18:35.352Z,83.71
2022-08-09T06:21:07.660Z,82.79
2022-08-09T06:23:58.725Z,81.82
2022-08-09T06:26:29.452Z,82.98
2022-08-09T06:29:05.050Z,83.13
2022-08-09T06:31:40.301Z,83.49
2022-08-09T06:34:29.835Z,81.53
2022-08-09T06:37:00.202Z,81.15
2022-08-09T06:39:48.831Z,80.66
2022-08-09T06:42:30.880Z,82.48
2022-08-09T06:45:09.187Z,82.89
2022-08-09T06:48:00.902Z,83.30
2022-08-09T06:50:31.869Z,84.99
2022-08-09T06:53:02.298Z,86.20
2022-08-09T06:55:32.907Z,87.13
2022-08-09T06:58:04.957Z,89.26
2022-08-09T07:00:49.454Z,89.34
2022-08-09T07:03:27.756Z,89.88
2022-08-09T07:06:03.578Z,90.77
2022-08-09T07:08:37.238Z,91.30
2022-08-09T07:11:12.725Z,91.33
2022-08-09T07:13:45.407Z,90.45
2022-08-09T07:16:42.915Z,90.40
2022-08-09T07:19:23.390Z,90.41
2022-08-09T07:21:57.046Z,90.91
2022-08-09T07:24:32.357Z,90.83
2022-08-09T07:27:27.068Z,90.60
2022-08-09T07:30:03.509Z,90.62
2022-08-09T07:32:35.081Z,90.70
2022-08-09T07:35:10.510Z,91.49
2022-08-09T07:37:43.521Z,92.17
2022-08-09T07:40:18.269Z,92.22
2022-08-09T07:42:54.702Z,92.04
2022-08-09T07:45:37.860Z,92.07
2022-08-09T07:48:22.452Z,91.95
2022-08-09T07:51:09.758Z,92.16
2022-08-09T07:54:07.202Z,92.47
2022-08-09T07:56:44.961Z,93.33
2022-08-09T07:59:33.718Z,93.13
2022-08-09T08:02:06.679Z,92.81
2022-08-09T08:04:38.610Z,91.90
2022-08-09T08:07:14.790Z,91.11
2022-08-09T08:10:08.836Z,90.36
2022-08-09T08:12:42.421Z,89.68
2022-08-09T08:15:16.656Z,88.87
2022-08-09T08:17:53.476Z,88.09
2022-08-09T08:20:30.463Z,88.22
2022-08-09T08:23:15.761Z,87.90
2022-08-09T08:25:50.502Z,87.39
2022-08-09T08:28:35.678Z,86.22
2022-08-09T08:31:14.461Z,85.04
2022-08-09T08:33:52.822Z,84.96
2022-08-09T08:36:28.768Z,84.54
2022-08-09T08:39:00.574Z,83.80
2022-08-09T08:41:50.226Z,82.45
2022-08-09T08:44:29.001Z,81.99
2022-08-09T08:47:04.854Z,82.31
2022-08-09T08:49:48.148Z,81.51
2022-08-09T08:55:18.967Z,80.70
2022-08-09T08:57:56.304Z,78.99
2022-08-09T09:00:34.203Z,78.15
2022-08-09T09:03:11.079Z,78.53
2022-08-09T09:06:01.086Z,78.66
2022-08-09T09:08:42.099Z,78.35
2022-08-09T09:11:19.662Z,78.53
2022-08-09T09:13:57.528Z,77.93
2022-08-09T09:16:34.517Z,78.07
2022-08-09T09:19:40.937Z,77.36
2022-08-09T09:22:11.972Z,77.85
2022-08-09T09:24:44.780Z,77.62
2022-08-09T09:28:04.526Z,77.10
2022-08-09T09:30:31.273Z,75.72
2022-08-09T09:33:14.394Z,76.11
2022-08-09T09:36:02.071Z,75.91
2022-08-09T09:38:46.374Z,76.20
2022-08-09T09:41:48.633Z,75.76
2022-08-09T09:44:27.803Z,75.32
2022-08-09T09:47:08.412Z,75.81
2022-08-09T09:50:07.092Z,76.19
2022-08-09T09:52:36.240Z,75.41
2022-08-09T09:55:28.407Z,75.15
2022-08-09T09:58:16.751Z,75.61
2022-08-09T10:00:55.853Z,74.70
2022-08-09T10:03:56.294Z,73.99
2022-08-09T10:06:32.330Z,71.15
2022-08-09T10:09:11.828Z,70.75
2022-08-09T10:12:14.124Z,69.81
2022-08-09T10:14:51.772Z,68.90
2022-08-09T10:17:39.792Z,68.42
2022-08-09T10:20:33.039Z,68.82
2022-08-09T10:23:20.363Z,71.44
2022-08-09T10:26:07.678Z,72.54
2022-08-09T10:28:45.570Z,72.69
2022-08-09T10:34:32.389Z,73.60
2022-08-09T10:37:04.282Z,74.00
2022-08-09T10:39:49.404Z,73.29
2022-08-09T10:42:21.791Z,73.11
2022-08-09T10:45:04.277Z,73.87
2022-08-09T10:48:17.365Z,73.39
2022-08-09T10:51:12.046Z,72.44
2022-08-09T10:53:59.442Z,71.62
2022-08-09T10:56:36.760Z,70.90
2022-08-09T10:59:55.457Z,70.35
2022-08-09T11:03:13.504Z,68.01
2022-08-09T11:05:32.350Z,67.99
2022-08-09T11:08:33.432Z,67.95
2022-08-09T11:11:08.525Z,68.44
2022-08-09T11:13:50.403Z,68.90
2022-08-09T11:16:41.506Z,67.64
2022-08-09T11:19:13.500Z,68.02
2022-08-09T11:22:16.596Z,67.97
2022-08-09T11:25:09.829Z,68.96
2022-08-09T11:28:04.235Z,69.23
2022-08-09T11:30:37.861Z,68.82
2022-08-09T11:33:16.319Z,69.33
2022-08-09T11:35:52.065Z,70.38
2022-08-09T11:38:28.850Z,70.32
2022-08-09T11:41:06.535Z,69.50
2022-08-09T11:43:44.676Z,69.02
2022-08-09T11:46:18.461Z,69.39
2022-08-09T11:49:05.190Z,68.28
2022-08-09T11:52:56.559Z,68.30
2022-08-09T11:55:51.785Z,67.98
2022-08-09T11:58:50.075Z,68.18
2022-08-09T12:02:16.221Z,66.23
2022-08-09T12:04:28.648Z,67.35
2022-08-09T12:07:08.302Z,67.53
2022-08-09T12:09:44.035Z,68.54
2022-08-09T12:12:29.148Z,69.04
2022-08-09T12:15:07.279Z,68.38
2022-08-09T12:17:44.454Z,68.30
2022-08-09T12:20:21.837Z,67.25
2022-08-09T12:22:58.147Z,66.89
2022-08-09T12:25:38.087Z,67.08
2022-08-09T12:28:58.338Z,66.40
2022-08-09T12:31:10.846Z,65.32
2022-08-09T12:33:58.604Z,65.18
2022-08-09T12:36:31.972Z,64.45
2022-08-09T12:39:04.570Z,64.28
2022-08-09T12:41:39.954Z,64.40
2022-08-09T12:44:13.035Z,62.69
2022-08-09T12:46:48.965Z,63.25
2022-08-09T12:49:21.875Z,64.04
2022-08-09T12:57:41.748Z,65.21
2022-08-09T13:00:25.425Z,65.30
2022-08-09T13:02:57.822Z,66.04
2022-08-09T13:05:35.658Z,65.48
2022-08-09T13:08:39.627Z,64.96
2022-08-09T13:11:25.975Z,64.13
2022-08-09T13:14:38.047Z,63.81
2022-08-09T13:16:52.788Z,64.99
2022-08-09T13:20:06.916Z,65.49
2022-08-09T13:22:35.528Z,66.39
2022-08-09T13:25:14.099Z,67.69
2022-08-09T13:27:55.251Z,69.00
2022-08-09T13:31:11.309Z,69.17
2022-08-09T13:33:24.288Z,69.16
2022-08-09T13:36:38.448Z,69.93
2022-08-09T13:38:55.052Z,69.40
2022-08-09T13:41:51.903Z,70.08
2022-08-09T13:44:18.903Z,68.79
2022-08-09T13:47:25.273Z,68.69
2022-08-09T13:49:57.880Z,69.26
2022-08-09T13:52:34.498Z,68.76
2022-08-09T13:55:07.449Z,67.84
2022-08-09T13:57:47.050Z,67.98
2022-08-09T14:00:27.305Z,68.05
2022-08-09T14:03:17.054Z,68.30
2022-08-09T14:05:58.604Z,67.55
2022-08-09T14:08:33.891Z,67.19
2022-08-09T14:11:03.869Z,67.66
2022-08-09T14:14:24.006Z,67.87
2022-08-09T14:16:36.864Z,66.70
2022-08-09T14:19:09.795Z,66.90
2022-08-09T14:21:39.862Z,66.15
2022-08-09T14:24:18.570Z,65.04
2022-08-09T14:26:55.393Z,64.75
2022-08-09T14:30:34.305Z,64.92
2022-08-09T14:32:19.968Z,64.72
2022-08-09T14:35:00.691Z,64.67
2022-08-09T14:37:41.122Z,64.58
2022-08-09T14:40:38.766Z,64.95
2022-08-09T14:43:09.364Z,67.21
2022-08-09T14:46:58.033Z,68.99
2022-08-09T14:48:36.484Z,69.39
2022-08-09T14:51:10.128Z,70.20
2022-08-09T14:53:44.420Z,70.39
2022-08-09T14:56:18.233Z,71.09
2022-08-09T14:58:51.765Z,71.11
2022-08-09T15:01:26.203Z,70.81
2022-08-09T15:03:56.112Z,70.56
2022-08-09T15:06:28.000Z,70.25
2022-08-09T15:09:00.651Z,70.14
2022-08-09T15:11:30.954Z,69.74
2022-08-09T15:14:13.125Z,70.18
2022-08-09T15:16:44.066Z,71.19
2022-08-09T15:19:26.116Z,71.78
2022-08-09T15:22:02.155Z,72.02
2022-08-09T15:24:33.400Z,70.06
2022-08-09T15:27:06.029Z,71.02
2022-08-09T15:30:55.521Z,72.49
2022-08-09T15:32:30.485Z,73.09
2022-08-09T15:35:18.561Z,73.49
2022-08-09T15:37:56.231Z,74.52
2022-08-09T15:40:44.027Z,75.23
2022-08-09T15:43:15.257Z,75.74
2022-08-09T15:46:08.103Z,75.37
2022-08-09T15:48:35.755Z,75.93
2022-08-09T15:51:30.421Z,76.37
2022-08-09T15:54:08.141Z,76.16
2022-08-09T15:56:46.861Z,76.15
2022-08-09T15:59:19.022Z,77.07
2022-08-09T16:01:48.454Z,76.50
2022-08-09T16:04:20.589Z,76.19
2022-08-09T16:06:52.457Z,75.96
2022-08-09T16:09:32.742Z,76.57
2022-08-09T16:12:15.669Z,77.07
2022-08-09T16:14:45.207Z,77.90
2022-08-09T16:17:16.928Z,78.11
2022-08-09T16:19:49.539Z,77.71
2022-08-09T16:22:34.294Z,78.13
2022-08-09T16:25:08.457Z,79.29
2022-08-09T16:27:38.299Z,79.00
2022-08-09T16:30:14.970Z,79.97
2022-08-09T16:33:07.907Z,80.54
2022-08-09T16:35:55.693Z,81.68
2022-08-09T16:38:27.718Z,82.20
2022-08-09T16:41:03.930Z,82.60
2022-08-09T16:43:34.378Z,82.55
2022-08-09T16:46:10.841Z,82.83
2022-08-09T16:48:55.664Z,83.84
2022-08-09T16:51:28.873Z,84.59
2022-08-09T16:54:26.205Z,85.16
2022-08-09T16:56:50.278Z,84.90
2022-08-09T16:59:19.467Z,85.10
2022-08-09T17:01:53.057Z,85.18
2022-08-09T17:04:28.311Z,86.17
2022-08-09T17:08:41.128Z,85.88
2022-08-09T17:09:48.717Z,85.26
2022-08-09T17:12:21.756Z,85.66
2022-08-09T17:14:58.102Z,86.19
2022-08-09T17:17:28.750Z,86.94
2022-08-09T17:20:32.452Z,87.27
2022-08-09T17:22:52.455Z,87.64
2022-08-09T17:25:23.906Z,87.74
2022-08-09T17:27:56.158Z,87.81
2022-08-09T17:30:28.167Z,88.39
2022-08-09T17:33:05.077Z,88.65
2022-08-09T17:35:41.083Z,88.95
2022-08-09T17:38:32.654Z,89.38
2022-08-09T17:41:03.119Z,89.62
2022-08-09T17:43:37.273Z,90.19
2022-08-09T17:46:09.876Z,90.32
2022-08-09T17:48:52.024Z,90.74
2022-08-09T17:51:23.480Z,90.98
2022-08-09T17:53:55.700Z,91.42
2022-08-09T17:56:28.881Z,91.81
2022-08-09T17:59:09.583Z,92.20
2022-08-09T18:02:07.508Z,92.15
2022-08-09T18:04:33.665Z,91.84
2022-08-09T18:07:04.635Z,92.07
2022-08-09T18:09:41.402Z,92.70
2022-08-09T18:12:17.802Z,92.61
2022-08-09T18:14:55.060Z,92.52
2022-08-09T18:17:27.362Z,92.53
2022-08-09T18:20:55.365Z,93.01
2022-08-09T18:23:06.938Z,93.33
2022-08-09T18:25:52.903Z,93.03
2022-08-09T18:30:39.732Z,93.03
2022-08-09T18:31:25.141Z,92.75
2022-08-09T18:34:14.349Z,92.37
2022-08-09T18:36:49.411Z,92.06
2022-08-09T18:39:18.984Z,92.13
2022-08-09T18:41:52.178Z,92.16
2022-08-09T18:44:25.397Z,92.10
2022-08-09T18:47:07.365Z,92.01
2022-08-09T18:49:41.435Z,91.32
2022-08-09T18:52:13.339Z,90.58
2022-08-09T18:54:52.209Z,90.45
2022-08-09T18:57:42.770Z,90.62
2022-08-09T19:00:19.085Z,90.21
2022-08-09T19:02:54.259Z,89.92
2022-08-09T19:05:41.499Z,90.02
2022-08-09T19:08:18.577Z,90.17
2022-08-09T19:10:50.843Z,90.21
2022-08-09T19:13:38.291Z,90.32
2022-08-09T19:16:13.214Z,90.44
2022-08-09T19:18:49.744Z,90.44
2022-08-09T19:21:21.749Z,90.52
2022-08-09T19:24:37.175Z,90.50
2022-08-09T19:26:59.805Z,90.20
2022-08-09T19:29:28.995Z,90.28
2022-08-09T19:32:08.305Z,90.61
2022-08-09T19:34:45.532Z,91.19
2022-08-09T19:37:17.618Z,92.26
2022-08-09T19:40:04.414Z,91.97
2022-08-09T19:42:35.112Z,92.82
2022-08-09T19:45:04.689Z,92.24
2022-08-09T19:47:38.153Z,93.17
2022-08-09T19:50:51.551Z,93.67
2022-08-09T19:53:02.486Z,94.03
2022-08-09T19:56:02.879Z,93.37
2022-08-09T19:58:29.634Z,93.12
2022-08-09T20:00:59.910Z,93.03
2022-08-09T20:04:10.847Z,92.99
2022-08-09T20:06:24.227Z,92.66
2022-08-09T20:08:59.755Z,92.37
2022-08-09T20:11:42.963Z,92.05
2022-08-09T20:14:15.056Z,92.13
2022-08-09T20:16:54.438Z,92.41
2022-08-09T20:19:48.018Z,92.53
2022-08-09T20:22:15.970Z,91.76
2022-08-09T20:24:54.222Z,91.99
2022-08-09T20:27:23.962Z,92.01
2022-08-09T20:29:53.418Z,92.18
2022-08-09T20:32:31.302Z,92.36
2022-08-09T20:35:13.682Z,92.31
2022-08-09T20:38:23.778Z,92.19
2022-08-09T20:40:36.575Z,91.85
2022-08-09T20:43:19.098Z,91.80
2022-08-09T20:46:01.922Z,91.68
2022-08-09T20:48:44.449Z,91.66
2022-08-09T20:51:16.683Z,91.93
2022-08-09T20:53:51.128Z,92.47
2022-08-09T20:56:22.112Z,92.71
2022-08-09T20:58:59.000Z,92.77
2022-08-09T21:01:34.590Z,92.78
2022-08-09T21:05:55.006Z,92.98
2022-08-09T21:07:12.295Z,93.07
2022-08-09T21:09:55.504Z,93.43
2022-08-09T21:15:23.616Z,93.89
2022-08-09T21:18:11.237Z,93.79
2022-08-09T21:20:41.532Z,93.61
2022-08-09T21:23:13.337Z,93.42
2022-08-09T21:25:59.257Z,93.19
2022-08-09T21:28:34.744Z,93.46
2022-08-09T21:31:13.761Z,93.57
2022-08-09T21:33:53.131Z,93.80
2022-08-09T21:36:30.083Z,93.86
2022-08-09T21:39:01.178Z,93.65
2022-08-09T21:42:04.148Z,93.24
2022-08-09T21:44:34.342Z,93.28
2022-08-09T21:47:07.789Z,92.64
2022-08-09T21:49:43.075Z,92.96
2022-08-09T21:52:18.089Z,93.15
2022-08-09T21:54:50.786Z,92.48
2022-08-09T21:57:38.712Z,92.71
2022-08-09T22:00:25.401Z,92.94
2022-08-09T22:02:59.335Z,92.52
2022-08-09T22:05:36.058Z,92.58
2022-08-09T22:08:14.451Z,92.65
2022-08-09T22:11:48.952Z,92.69
2022-08-09T22:13:38.333Z,92.38
2022-08-09T22:16:09.551Z,93.23
2022-08-09T22:18:52.148Z,92.88
2022-08-09T22:21:44.804Z,93.25
2022-08-09T22:24:21.034Z,92.76
2022-08-09T22:26:56.792Z,93.07
2022-08-09T22:29:38.435Z,93.40
2022-08-09T22:32:30.018Z,92.95
2022-08-09T22:35:06.116Z,93.03
2022-08-09T22:37:40.217Z,93.16
2022-08-09T22:40:19.906Z,93.35
2022-08-09T22:42:49.882Z,93.74
2022-08-09T22:48:18.480Z,93.73
2022-08-09T22:48:33.680Z,93.49
2022-08-09T22:50:59.577Z,93.84
2022-08-09T22:53:33.346Z,93.61
2022-08-09T22:56:32.874Z,93.81
2022-08-09T22:59:05.682Z,93.74
2022-08-09T23:01:54.565Z,93.63
2022-08-09T23:04:25.661Z,93.66
2022-08-09T23:08:21.370Z,93.89
2022-08-09T23:10:09.317Z,93.80
2022-08-09T23:12:41.439Z,94.21
2022-08-09T23:15:11.839Z,94.49
2022-08-09T23:17:43.204Z,94.62
2022-08-09T23:20:13.588Z,94.35
2022-08-09T23:22:42.799Z,94.18
2022-08-09T23:25:12.681Z,94.16
2022-08-09T23:28:14.377Z,93.98
2022-08-09T23:30:31.085Z,94.01
2022-08-09T23:33:02.235Z,94.44
2022-08-09T23:35:31.489Z,94.32
2022-08-09T23:38:21.004Z,94.57
2022-08-09T23:40:53.705Z,94.45
2022-08-09T23:43:23.163Z,94.70
2022-08-09T23:45:52.286Z,94.63
2022-08-09T23:48:23.873Z,94.80
2022-08-09T23:50:52.734Z,94.78
2022-08-09T23:53:21.907Z,95.38
2022-08-09T23:55:54.914Z,95.79
2022-08-09T23:58:29.764Z,96.04
